sensor_id;sensor_type;location;lat;lon;timestamp;pressure;altitude;pressure_sealevel;temperature;humidity
11936;BME280;6027;48.576;9.180;2023-02-13T00:01:25;98721.31;;;2.30;100.00
11936;BME280;6027;48.576;9.180;2023-02-13T00:03:50;98720.25;;;2.33;100.00
11936;BME280;6027;48.576;9.180;2023-02-13T00:06:16;98714.63;;;2.40;100.00
11936;BME280;6027;48.576;9.180;2023-02-13T00:08:41;98711.91;;;2.42;100.00
11936;BME280;6027;48.576;9.180;2023-02-13T00:11:06;98719.34;;;2.50;100.00
11936;BME280;6027;48.576;9.180;2023-02-13T00:13:33;98708.03;;;2.49;100.00
11936;BME280;6027;48.576;9.180;2023-02-13T00:16:01;98708.75;;;2.51;100.00
11936;BME280;6027;48.576;9.180;2023-02-13T00:18:28;98711.56;;;2.48;100.00
11936;BME280;6027;48.576;9.180;2023-02-13T00:21:09;98713.56;;;2.59;100.00
11936;BME280;6027;48.576;9.180;2023-02-13T00:23:35;98713.56;;;2.59;100.00
11936;BME280;6027;48.576;9.180;2023-02-13T00:26:07;98718.88;;;2.57;100.00
11936;BME280;6027;48.576;9.180;2023-02-13T00:28:33;98710.78;;;2.62;100.00
11936;BME280;6027;48.576;9.180;2023-02-13T00:31:04;98710.63;;;2.65;100.00
11936;BME280;6027;48.576;9.180;2023-02-13T00:33:30;98715.00;;;2.64;100.00
11936;BME280;6027;48.576;9.180;2023-02-13T00:36:08;98709.59;;;2.52;100.00
11936;BME280;6027;48.576;9.180;2023-02-13T00:38:35;98717.91;;;2.44;100.00
11936;BME280;6027;48.576;9.180;2023-02-13T00:41:01;98719.78;;;2.26;100.00
11936;BME280;6027;48.576;9.180;2023-02-13T00:43:26;98713.19;;;2.19;100.00
11936;BME280;6027;48.576;9.180;2023-02-13T00:45:52;98709.50;;;2.23;100.00
11936;BME280;6027;48.576;9.180;2023-02-13T00:48:17;98713.19;;;2.19;100.00
11936;BME280;6027;48.576;9.180;2023-02-13T00:50:45;98711.66;;;2.15;100.00
11936;BME280;6027;48.576;9.180;2023-02-13T00:53:10;98709.97;;;2.14;100.00
11936;BME280;6027;48.576;9.180;2023-02-13T00:55:36;98713.44;;;1.99;100.00
11936;BME280;6027;48.576;9.180;2023-02-13T00:58:01;98713.13;;;1.89;100.00
11936;BME280;6027;48.576;9.180;2023-02-13T01:00:26;98710.59;;;1.88;100.00
11936;BME280;6027;48.576;9.180;2023-02-13T01:02:52;98711.69;;;1.84;100.00
11936;BME280;6027;48.576;9.180;2023-02-13T01:05:17;98704.84;;;1.81;100.00
11936;BME280;6027;48.576;9.180;2023-02-13T01:07:43;98713.50;;;1.66;100.00
11936;BME280;6027;48.576;9.180;2023-02-13T01:10:08;98718.22;;;1.75;100.00
11936;BME280;6027;48.576;9.180;2023-02-13T01:12:34;98714.59;;;1.78;100.00
11936;BME280;6027;48.576;9.180;2023-02-13T01:15:00;98716.13;;;1.66;100.00
11936;BME280;6027;48.576;9.180;2023-02-13T01:17:25;98712.63;;;1.50;100.00
11936;BME280;6027;48.576;9.180;2023-02-13T01:19:51;98713.69;;;1.30;100.00
11936;BME280;6027;48.576;9.180;2023-02-13T01:22:16;98705.78;;;1.31;100.00
11936;BME280;6027;48.576;9.180;2023-02-13T01:24:42;98713.84;;;1.27;100.00
11936;BME280;6027;48.576;9.180;2023-02-13T01:27:07;98715.13;;;1.18;100.00
11936;BME280;6027;48.576;9.180;2023-02-13T01:29:32;98705.97;;;1.11;100.00
11936;BME280;6027;48.576;9.180;2023-02-13T01:31:58;98707.56;;;1.14;100.00
11936;BME280;6027;48.576;9.180;2023-02-13T01:34:24;98702.28;;;1.15;100.00
11936;BME280;6027;48.576;9.180;2023-02-13T01:36:49;98699.56;;;1.17;100.00
11936;BME280;6027;48.576;9.180;2023-02-13T01:39:15;98699.19;;;1.24;100.00
11936;BME280;6027;48.576;9.180;2023-02-13T01:41:40;98702.63;;;1.25;100.00
11936;BME280;6027;48.576;9.180;2023-02-13T01:47:12;98699.25;;;1.23;100.00
11936;BME280;6027;48.576;9.180;2023-02-13T01:49:38;98690.88;;;1.16;100.00
11936;BME280;6027;48.576;9.180;2023-02-13T01:52:04;98708.66;;;1.10;100.00
11936;BME280;6027;48.576;9.180;2023-02-13T01:54:32;98693.75;;;1.12;100.00
11936;BME280;6027;48.576;9.180;2023-02-13T01:57:02;98695.28;;;0.98;100.00
11936;BME280;6027;48.576;9.180;2023-02-13T01:59:57;98695.91;;;1.03;100.00
11936;BME280;6027;48.576;9.180;2023-02-13T02:02:24;98692.00;;;1.12;100.00
11936;BME280;6027;48.576;9.180;2023-02-13T02:04:50;98694.53;;;1.14;100.00
11936;BME280;6027;48.576;9.180;2023-02-13T02:07:26;98691.69;;;1.01;100.00
11936;BME280;6027;48.576;9.180;2023-02-13T02:09:58;98696.91;;;1.01;100.00
11936;BME280;6027;48.576;9.180;2023-02-13T02:12:36;98700.22;;;0.87;100.00
11936;BME280;6027;48.576;9.180;2023-02-13T02:15:05;98697.38;;;0.92;100.00
11936;BME280;6027;48.576;9.180;2023-02-13T02:17:31;98691.84;;;0.81;100.00
11936;BME280;6027;48.576;9.180;2023-02-13T02:20:06;98693.53;;;0.82;100.00
11936;BME280;6027;48.576;9.180;2023-02-13T02:22:51;98691.47;;;0.88;100.00
11936;BME280;6027;48.576;9.180;2023-02-13T02:28:50;98693.09;;;0.74;100.00
11936;BME280;6027;48.576;9.180;2023-02-13T02:31:50;98691.25;;;0.76;100.00
11936;BME280;6027;48.576;9.180;2023-02-13T02:48:29;98694.22;;;0.51;100.00
11936;BME280;6027;48.576;9.180;2023-02-13T02:51:23;98700.16;;;0.54;100.00
11936;BME280;6027;48.576;9.180;2023-02-13T02:54:32;98692.47;;;0.51;100.00
11936;BME280;6027;48.576;9.180;2023-02-13T02:57:23;98703.53;;;0.56;100.00
11936;BME280;6027;48.576;9.180;2023-02-13T02:59:50;98695.59;;;0.58;100.00
11936;BME280;6027;48.576;9.180;2023-02-13T03:02:35;98701.59;;;0.60;100.00
11936;BME280;6027;48.576;9.180;2023-02-13T03:05:31;98695.59;;;0.41;100.00
11936;BME280;6027;48.576;9.180;2023-02-13T03:08:17;98706.13;;;0.20;100.00
11936;BME280;6027;48.576;9.180;2023-02-13T03:11:03;98709.75;;;0.18;100.00
11936;BME280;6027;48.576;9.180;2023-02-13T03:13:48;98703.31;;;0.06;100.00
11936;BME280;6027;48.576;9.180;2023-02-13T03:16:16;98705.66;;;0.12;100.00
11936;BME280;6027;48.576;9.180;2023-02-13T03:19:02;98711.00;;;0.09;100.00
11936;BME280;6027;48.576;9.180;2023-02-13T03:22:20;98707.28;;;0.15;100.00
11936;BME280;6027;48.576;9.180;2023-02-13T03:41:51;98730.50;;;0.00;100.00
11936;BME280;6027;48.576;9.180;2023-02-13T03:44:31;98731.34;;;0.01;100.00
11936;BME280;6027;48.576;9.180;2023-02-13T03:47:00;98730.16;;;-0.11;100.00
11936;BME280;6027;48.576;9.180;2023-02-13T03:49:31;98737.19;;;-0.31;100.00
11936;BME280;6027;48.576;9.180;2023-02-13T03:52:28;98733.53;;;-0.46;100.00
11936;BME280;6027;48.576;9.180;2023-02-13T03:55:01;98734.84;;;-0.38;100.00
11936;BME280;6027;48.576;9.180;2023-02-13T03:57:48;98745.50;;;-0.23;100.00
11936;BME280;6027;48.576;9.180;2023-02-13T04:00:38;98740.91;;;-0.18;100.00
11936;BME280;6027;48.576;9.180;2023-02-13T04:06:08;98742.59;;;-0.36;100.00
11936;BME280;6027;48.576;9.180;2023-02-13T04:08:35;98738.28;;;-0.56;100.00
11936;BME280;6027;48.576;9.180;2023-02-13T04:14:07;98744.75;;;-0.64;100.00
11936;BME280;6027;48.576;9.180;2023-02-13T04:16:38;98742.47;;;-0.72;100.00
11936;BME280;6027;48.576;9.180;2023-02-13T04:19:06;98736.03;;;-0.63;100.00
11936;BME280;6027;48.576;9.180;2023-02-13T04:21:35;98740.75;;;-0.53;100.00
11936;BME280;6027;48.576;9.180;2023-02-13T04:24:02;98751.88;;;-0.49;100.00
11936;BME280;6027;48.576;9.180;2023-02-13T04:26:39;98744.31;;;-0.55;100.00
11936;BME280;6027;48.576;9.180;2023-02-13T04:29:05;98750.03;;;-0.47;100.00
11936;BME280;6027;48.576;9.180;2023-02-13T04:31:31;98742.78;;;-0.59;100.00
11936;BME280;6027;48.576;9.180;2023-02-13T04:33:57;98747.94;;;-0.58;100.00
11936;BME280;6027;48.576;9.180;2023-02-13T04:36:22;98747.09;;;-0.58;100.00
11936;BME280;6027;48.576;9.180;2023-02-13T04:38:49;98737.34;;;-0.55;100.00
11936;BME280;6027;48.576;9.180;2023-02-13T04:41:14;98746.63;;;-0.68;100.00
11936;BME280;6027;48.576;9.180;2023-02-13T04:43:40;98733.34;;;-0.62;100.00
11936;BME280;6027;48.576;9.180;2023-02-13T04:46:05;98741.75;;;-0.76;100.00
11936;BME280;6027;48.576;9.180;2023-02-13T04:48:31;98740.91;;;-0.76;100.00
11936;BME280;6027;48.576;9.180;2023-02-13T04:50:56;98744.56;;;-0.80;100.00
11936;BME280;6027;48.576;9.180;2023-02-13T04:53:22;98749.03;;;-0.84;100.00
11936;BME280;6027;48.576;9.180;2023-02-13T04:55:47;98745.13;;;-0.94;100.00
11936;BME280;6027;48.576;9.180;2023-02-13T04:58:13;98744.03;;;-1.09;100.00
11936;BME280;6027;48.576;9.180;2023-02-13T05:00:38;98745.47;;;-1.01;100.00
11936;BME280;6027;48.576;9.180;2023-02-13T05:03:06;98750.72;;;-1.03;100.00
11936;BME280;6027;48.576;9.180;2023-02-13T05:05:31;98753.09;;;-0.97;100.00
11936;BME280;6027;48.576;9.180;2023-02-13T05:07:57;98751.25;;;-0.95;100.00
11936;BME280;6027;48.576;9.180;2023-02-13T05:10:22;98747.88;;;-0.97;100.00
11936;BME280;6027;48.576;9.180;2023-02-13T05:12:48;98755.22;;;-0.86;100.00
11936;BME280;6027;48.576;9.180;2023-02-13T05:15:13;98748.75;;;-0.96;100.00
11936;BME280;6027;48.576;9.180;2023-02-13T05:17:39;98764.06;;;-0.90;100.00
11936;BME280;6027;48.576;9.180;2023-02-13T05:20:05;98757.81;;;-0.86;100.00
11936;BME280;6027;48.576;9.180;2023-02-13T05:22:30;98755.03;;;-0.82;100.00
11936;BME280;6027;48.576;9.180;2023-02-13T05:25:14;98757.50;;;-0.79;100.00
11936;BME280;6027;48.576;9.180;2023-02-13T05:27:40;98760.22;;;-0.82;100.00
11936;BME280;6027;48.576;9.180;2023-02-13T05:30:06;98750.44;;;-0.77;100.00
11936;BME280;6027;48.576;9.180;2023-02-13T05:32:31;98759.09;;;-0.76;100.00
11936;BME280;6027;48.576;9.180;2023-02-13T05:34:57;98757.44;;;-0.77;100.00
11936;BME280;6027;48.576;9.180;2023-02-13T05:37:22;98761.63;;;-0.75;100.00
11936;BME280;6027;48.576;9.180;2023-02-13T05:39:47;98760.72;;;-0.74;100.00
11936;BME280;6027;48.576;9.180;2023-02-13T05:42:13;98766.06;;;-0.77;100.00
11936;BME280;6027;48.576;9.180;2023-02-13T05:44:38;98756.06;;;-0.65;100.00
11936;BME280;6027;48.576;9.180;2023-02-13T05:47:04;98758.66;;;-0.65;100.00
11936;BME280;6027;48.576;9.180;2023-02-13T05:49:29;98756.72;;;-0.60;100.00
11936;BME280;6027;48.576;9.180;2023-02-13T05:51:55;98745.41;;;-0.80;100.00
11936;BME280;6027;48.576;9.180;2023-02-13T05:54:20;98749.88;;;-1.03;100.00
11936;BME280;6027;48.576;9.180;2023-02-13T05:56:46;98751.00;;;-0.89;100.00
11936;BME280;6027;48.576;9.180;2023-02-13T05:59:11;98743.38;;;-0.93;100.00
11936;BME280;6027;48.576;9.180;2023-02-13T06:01:37;98748.44;;;-0.90;100.00
11936;BME280;6027;48.576;9.180;2023-02-13T06:04:02;98747.53;;;-0.89;100.00
11936;BME280;6027;48.576;9.180;2023-02-13T06:06:28;98758.28;;;-0.97;100.00
11936;BME280;6027;48.576;9.180;2023-02-13T06:08:55;98757.88;;;-1.08;100.00
11936;BME280;6027;48.576;9.180;2023-02-13T06:11:21;98758.81;;;-1.31;100.00
11936;BME280;6027;48.576;9.180;2023-02-13T06:13:46;98761.84;;;-1.20;100.00
11936;BME280;6027;48.576;9.180;2023-02-13T06:16:12;98764.38;;;-1.18;100.00
11936;BME280;6027;48.576;9.180;2023-02-13T06:18:37;98761.19;;;-1.05;100.00
11936;BME280;6027;48.576;9.180;2023-02-13T06:21:04;98766.69;;;-1.12;100.00
11936;BME280;6027;48.576;9.180;2023-02-13T06:23:31;98770.00;;;-1.29;100.00
11936;BME280;6027;48.576;9.180;2023-02-13T06:26:03;98773.38;;;-1.27;100.00
11936;BME280;6027;48.576;9.180;2023-02-13T06:28:28;98769.28;;;-1.32;100.00
11936;BME280;6027;48.576;9.180;2023-02-13T06:30:54;98770.34;;;-1.58;100.00
11936;BME280;6027;48.576;9.180;2023-02-13T06:33:19;98762.22;;;-1.73;100.00
11936;BME280;6027;48.576;9.180;2023-02-13T06:35:45;98771.28;;;-1.61;100.00
11936;BME280;6027;48.576;9.180;2023-02-13T06:38:10;98776.38;;;-1.58;100.00
11936;BME280;6027;48.576;9.180;2023-02-13T06:40:36;98766.16;;;-1.41;100.00
11936;BME280;6027;48.576;9.180;2023-02-13T06:43:01;98776.03;;;-1.28;100.00
11936;BME280;6027;48.576;9.180;2023-02-13T06:45:27;98777.50;;;-1.21;100.00
11936;BME280;6027;48.576;9.180;2023-02-13T06:47:52;98767.09;;;-1.21;100.00
11936;BME280;6027;48.576;9.180;2023-02-13T06:50:17;98777.31;;;-1.17;100.00
11936;BME280;6027;48.576;9.180;2023-02-13T06:52:48;98774.91;;;-1.21;100.00
11936;BME280;6027;48.576;9.180;2023-02-13T06:55:14;98777.38;;;-1.18;100.00
11936;BME280;6027;48.576;9.180;2023-02-13T06:57:41;98775.00;;;-1.24;100.00
11936;BME280;6027;48.576;9.180;2023-02-13T07:00:08;98788.75;;;-1.21;100.00
11936;BME280;6027;48.576;9.180;2023-02-13T07:02:38;98781.34;;;-1.10;100.00
11936;BME280;6027;48.576;9.180;2023-02-13T07:05:05;98776.25;;;-1.13;100.00
11936;BME280;6027;48.576;9.180;2023-02-13T07:07:35;98785.69;;;-1.10;100.00
11936;BME280;6027;48.576;9.180;2023-02-13T07:10:01;98788.41;;;-1.13;100.00
11936;BME280;6027;48.576;9.180;2023-02-13T07:12:27;98791.91;;;-1.14;100.00
11936;BME280;6027;48.576;9.180;2023-02-13T07:14:52;98793.81;;;-1.18;100.00
11936;BME280;6027;48.576;9.180;2023-02-13T07:17:17;98791.91;;;-1.14;100.00
11936;BME280;6027;48.576;9.180;2023-02-13T07:19:43;98793.47;;;-1.10;100.00
11936;BME280;6027;48.576;9.180;2023-02-13T07:22:08;98793.19;;;-1.02;100.00
11936;BME280;6027;48.576;9.180;2023-02-13T07:24:34;98794.03;;;-1.02;100.00
11936;BME280;6027;48.576;9.180;2023-02-13T07:27:00;98797.47;;;-1.01;100.00
11936;BME280;6027;48.576;9.180;2023-02-13T07:29:26;98801.69;;;-0.99;100.00
11936;BME280;6027;48.576;9.180;2023-02-13T07:31:51;98795.06;;;-1.06;100.00
11936;BME280;6027;48.576;9.180;2023-02-13T07:34:17;98797.47;;;-1.01;100.00
11936;BME280;6027;48.576;9.180;2023-02-13T07:36:42;98796.13;;;-1.12;100.00
11936;BME280;6027;48.576;9.180;2023-02-13T07:39:07;98797.84;;;-1.11;100.00
11936;BME280;6027;48.576;9.180;2023-02-13T07:41:33;98800.94;;;-1.23;100.00
11936;BME280;6027;48.576;9.180;2023-02-13T07:43:58;98806.38;;;-1.29;100.00
11936;BME280;6027;48.576;9.180;2023-02-13T07:46:24;98798.69;;;-1.10;100.00
11936;BME280;6027;48.576;9.180;2023-02-13T07:48:52;98811.44;;;-1.04;100.00
11936;BME280;6027;48.576;9.180;2023-02-13T07:51:18;98799.94;;;-0.98;100.00
11936;BME280;6027;48.576;9.180;2023-02-13T07:53:43;98804.63;;;-0.86;100.00
11936;BME280;6027;48.576;9.180;2023-02-13T07:56:09;98802.63;;;-0.80;100.00
11936;BME280;6027;48.576;9.180;2023-02-13T07:58:36;98807.34;;;-0.89;100.00
11936;BME280;6027;48.576;9.180;2023-02-13T08:01:10;98802.41;;;-0.75;100.00
11936;BME280;6027;48.576;9.180;2023-02-13T08:03:36;98799.97;;;-0.78;100.00
11936;BME280;6027;48.576;9.180;2023-02-13T08:06:02;98808.19;;;-0.48;100.00
11936;BME280;6027;48.576;9.180;2023-02-13T08:08:28;98801.75;;;-0.40;100.00
11936;BME280;6027;48.576;9.180;2023-02-13T08:10:54;98814.03;;;-0.23;100.00
11936;BME280;6027;48.576;9.180;2023-02-13T08:13:38;98815.97;;;-0.28;100.00
11936;BME280;6027;48.576;9.180;2023-02-13T08:16:04;98809.16;;;-0.30;100.00
11936;BME280;6027;48.576;9.180;2023-02-13T08:18:29;98812.00;;;-0.37;100.00
11936;BME280;6027;48.576;9.180;2023-02-13T08:20:54;98812.72;;;-0.33;100.00
11936;BME280;6027;48.576;9.180;2023-02-13T08:23:20;98803.59;;;-0.42;100.00
11936;BME280;6027;48.576;9.180;2023-02-13T08:25:45;98815.25;;;-0.31;100.00
11936;BME280;6027;48.576;9.180;2023-02-13T08:28:14;98811.97;;;-0.16;100.00
11936;BME280;6027;48.576;9.180;2023-02-13T08:30:39;98823.94;;;-0.12;100.00
11936;BME280;6027;48.576;9.180;2023-02-13T08:33:05;98813.97;;;-0.21;100.00
11936;BME280;6027;48.576;9.180;2023-02-13T08:35:30;98811.59;;;-0.07;100.00
11936;BME280;6027;48.576;9.180;2023-02-13T08:37:56;98808.34;;;0.07;100.00
11936;BME280;6027;48.576;9.180;2023-02-13T08:40:22;98812.63;;;0.08;100.00
11936;BME280;6027;48.576;9.180;2023-02-13T08:42:48;98816.22;;;0.24;100.00
11936;BME280;6027;48.576;9.180;2023-02-13T08:45:13;98805.66;;;0.46;100.00
11936;BME280;6027;48.576;9.180;2023-02-13T08:47:39;98804.34;;;0.73;100.00
11936;BME280;6027;48.576;9.180;2023-02-13T08:50:04;98798.19;;;0.93;100.00
11936;BME280;6027;48.576;9.180;2023-02-13T08:52:30;98798.31;;;1.24;100.00
11936;BME280;6027;48.576;9.180;2023-02-13T08:54:56;98789.78;;;1.38;100.00
11936;BME280;6027;48.576;9.180;2023-02-13T08:57:21;98803.09;;;1.51;100.00
11936;BME280;6027;48.576;9.180;2023-02-13T08:59:47;98788.31;;;1.67;100.00
11936;BME280;6027;48.576;9.180;2023-02-13T09:02:12;98796.41;;;1.78;100.00
11936;BME280;6027;48.576;9.180;2023-02-13T09:04:39;98784.41;;;1.91;100.00
11936;BME280;6027;48.576;9.180;2023-02-13T09:07:04;98801.13;;;2.20;100.00
11936;BME280;6027;48.576;9.180;2023-02-13T09:09:30;98790.50;;;2.23;100.00
11936;BME280;6027;48.576;9.180;2023-02-13T09:11:55;98795.56;;;2.42;100.00
11936;BME280;6027;48.576;9.180;2023-02-13T09:14:23;98794.28;;;2.33;100.00
11936;BME280;6027;48.576;9.180;2023-02-13T09:16:48;98785.88;;;2.44;100.00
11936;BME280;6027;48.576;9.180;2023-02-13T09:19:14;98787.88;;;2.39;100.00
11936;BME280;6027;48.576;9.180;2023-02-13T09:21:39;98782.41;;;2.59;100.00
11936;BME280;6027;48.576;9.180;2023-02-13T09:24:09;98780.84;;;2.71;100.00
11936;BME280;6027;48.576;9.180;2023-02-13T09:26:34;98785.91;;;2.74;100.00
11936;BME280;6027;48.576;9.180;2023-02-13T09:28:59;98785.06;;;2.73;100.00
11936;BME280;6027;48.576;9.180;2023-02-13T09:31:25;98779.16;;;2.70;100.00
11936;BME280;6027;48.576;9.180;2023-02-13T09:33:50;98780.78;;;2.72;100.00
11936;BME280;6027;48.576;9.180;2023-02-13T09:36:21;98787.34;;;2.80;100.00
11936;BME280;6027;48.576;9.180;2023-02-13T09:38:55;98788.06;;;2.97;100.00
11936;BME280;6027;48.576;9.180;2023-02-13T09:41:28;98781.56;;;3.04;100.00
11936;BME280;6027;48.576;9.180;2023-02-13T09:43:59;98782.88;;;3.11;100.00
11936;BME280;6027;48.576;9.180;2023-02-13T09:46:32;98784.81;;;3.24;100.00
11936;BME280;6027;48.576;9.180;2023-02-13T09:49:01;98799.00;;;3.64;100.00
11936;BME280;6027;48.576;9.180;2023-02-13T09:51:29;98794.53;;;3.80;100.00
11936;BME280;6027;48.576;9.180;2023-02-13T09:54:05;98780.66;;;3.78;100.00
11936;BME280;6027;48.576;9.180;2023-02-13T10:13:30;98792.78;;;4.36;100.00
11936;BME280;6027;48.576;9.180;2023-02-13T10:16:15;98794.81;;;4.04;100.00
11936;BME280;6027;48.576;9.180;2023-02-13T10:18:55;98804.88;;;4.24;100.00
11936;BME280;6027;48.576;9.180;2023-02-13T10:21:27;98798.94;;;4.49;100.00
11936;BME280;6027;48.576;9.180;2023-02-13T10:24:11;98798.81;;;4.65;100.00
11936;BME280;6027;48.576;9.180;2023-02-13T10:26:40;98798.88;;;4.63;100.00
11936;BME280;6027;48.576;9.180;2023-02-13T10:29:21;98789.22;;;4.78;100.00
11936;BME280;6027;48.576;9.180;2023-02-13T10:32:14;98794.41;;;4.92;100.00
11936;BME280;6027;48.576;9.180;2023-02-13T10:34:44;98795.94;;;4.82;100.00
11936;BME280;6027;48.576;9.180;2023-02-13T10:37:19;98788.38;;;4.77;100.00
11936;BME280;6027;48.576;9.180;2023-02-13T10:39:47;98796.09;;;4.93;100.00
11936;BME280;6027;48.576;9.180;2023-02-13T10:45:42;98783.47;;;4.85;100.00
11936;BME280;6027;48.576;9.180;2023-02-13T10:53:27;98770.63;;;5.20;100.00
11936;BME280;6027;48.576;9.180;2023-02-13T10:56:09;98768.25;;;5.30;100.00
11936;BME280;6027;48.576;9.180;2023-02-13T11:03:42;98760.75;;;5.24;99.19
11936;BME280;6027;48.576;9.180;2023-02-13T11:06:13;98769.59;;;5.23;100.00
11936;BME280;6027;48.576;9.180;2023-02-13T11:08:43;98764.31;;;5.10;100.00
11936;BME280;6027;48.576;9.180;2023-02-13T11:11:30;98761.31;;;5.29;100.00
11936;BME280;6027;48.576;9.180;2023-02-13T11:14:15;98749.75;;;5.44;98.74
11936;BME280;6027;48.576;9.180;2023-02-13T11:19:38;98749.47;;;5.74;96.81
11936;BME280;6027;48.576;9.180;2023-02-13T11:22:10;98752.47;;;5.81;98.41
11936;BME280;6027;48.576;9.180;2023-02-13T11:24:39;98757.16;;;5.90;97.56
11936;BME280;6027;48.576;9.180;2023-02-13T11:27:09;98749.66;;;5.97;98.85
11936;BME280;6027;48.576;9.180;2023-02-13T11:29:51;98745.13;;;6.11;98.74
11936;BME280;6027;48.576;9.180;2023-02-13T11:32:23;98751.28;;;6.23;95.78
11936;BME280;6027;48.576;9.180;2023-02-13T11:34:49;98745.41;;;6.32;95.71
11936;BME280;6027;48.576;9.180;2023-02-13T11:37:33;98740.88;;;6.21;92.11
11936;BME280;6027;48.576;9.180;2023-02-13T11:39:59;98741.91;;;6.32;94.66
11936;BME280;6027;48.576;9.180;2023-02-13T11:42:35;98722.72;;;6.42;90.76
11936;BME280;6027;48.576;9.180;2023-02-13T11:45:13;98732.53;;;6.64;91.91
11936;BME280;6027;48.576;9.180;2023-02-13T11:47:45;98734.84;;;6.69;87.33
11936;BME280;6027;48.576;9.180;2023-02-13T11:50:25;98731.63;;;6.76;89.24
11936;BME280;6027;48.576;9.180;2023-02-13T11:55:33;98732.31;;;6.67;89.06
11936;BME280;6027;48.576;9.180;2023-02-13T11:58:23;98733.06;;;6.80;91.27
11936;BME280;6027;48.576;9.180;2023-02-13T12:01:10;98727.63;;;6.94;90.89
11936;BME280;6027;48.576;9.180;2023-02-13T12:03:36;98730.22;;;7.18;86.51
11936;BME280;6027;48.576;9.180;2023-02-13T12:06:21;98726.03;;;7.16;87.82
11936;BME280;6027;48.576;9.180;2023-02-13T12:08:48;98731.09;;;7.30;92.31
11936;BME280;6027;48.576;9.180;2023-02-13T12:14:01;98719.63;;;7.31;87.96
11936;BME280;6027;48.576;9.180;2023-02-13T12:16:42;98723.31;;;7.40;85.83
11936;BME280;6027;48.576;9.180;2023-02-13T12:19:15;98722.50;;;7.39;85.19
11936;BME280;6027;48.576;9.180;2023-02-13T12:51:24;98709.56;;;8.25;83.23
11936;BME280;6027;48.576;9.180;2023-02-13T13:05:36;98699.69;;;8.27;78.00
11936;BME280;6027;48.576;9.180;2023-02-13T13:14:05;98689.28;;;8.26;80.24
11936;BME280;6027;48.576;9.180;2023-02-13T13:17:24;98686.78;;;8.36;78.46
11936;BME280;6027;48.576;9.180;2023-02-13T13:19:37;98690.25;;;8.25;78.37
11936;BME280;6027;48.576;9.180;2023-02-13T13:22:10;98685.94;;;8.13;78.67
11936;BME280;6027;48.576;9.180;2023-02-13T13:25:10;98677.91;;;8.25;78.51
11936;BME280;6027;48.576;9.180;2023-02-13T13:27:44;98676.22;;;8.24;76.98
11936;BME280;6027;48.576;9.180;2023-02-13T13:30:17;98677.16;;;8.35;77.97
11936;BME280;6027;48.576;9.180;2023-02-13T13:32:45;98676.22;;;8.36;77.29
11936;BME280;6027;48.576;9.180;2023-02-13T13:35:15;98676.47;;;8.21;77.68
11936;BME280;6027;48.576;9.180;2023-02-13T13:37:55;98679.09;;;8.10;77.91
11936;BME280;6027;48.576;9.180;2023-02-13T14:07:40;98683.81;;;8.07;79.52
11936;BME280;6027;48.576;9.180;2023-02-13T14:20:38;98682.97;;;8.60;75.44
11936;BME280;6027;48.576;9.180;2023-02-13T14:23:11;98683.69;;;8.62;75.65
11936;BME280;6027;48.576;9.180;2023-02-13T14:25:38;98674.94;;;8.62;76.39
11936;BME280;6027;48.576;9.180;2023-02-13T14:28:04;98676.38;;;8.55;76.07
11936;BME280;6027;48.576;9.180;2023-02-13T14:30:33;98677.56;;;8.62;74.09
11936;BME280;6027;48.576;9.180;2023-02-13T14:33:02;98673.44;;;8.69;74.50
11936;BME280;6027;48.576;9.180;2023-02-13T14:35:32;98674.72;;;8.54;75.27
11936;BME280;6027;48.576;9.180;2023-02-13T14:38:01;98673.69;;;8.45;76.65
11936;BME280;6027;48.576;9.180;2023-02-13T14:48:47;98676.16;;;8.58;75.87
11936;BME280;6027;48.576;9.180;2023-02-13T14:51:25;98670.19;;;8.45;76.12
11936;BME280;6027;48.576;9.180;2023-02-13T14:53:57;98667.75;;;8.53;76.25
11936;BME280;6027;48.576;9.180;2023-02-13T14:56:24;98672.53;;;8.59;75.12
11936;BME280;6027;48.576;9.180;2023-02-13T14:59:04;98667.56;;;8.45;75.98
11936;BME280;6027;48.576;9.180;2023-02-13T15:01:39;98672.84;;;8.45;76.87
11936;BME280;6027;48.576;9.180;2023-02-13T15:04:36;98666.41;;;8.58;75.48
11936;BME280;6027;48.576;9.180;2023-02-13T15:07:00;98669.25;;;8.46;76.74
11936;BME280;6027;48.576;9.180;2023-02-13T15:09:36;98674.47;;;8.57;76.02
11936;BME280;6027;48.576;9.180;2023-02-13T15:12:03;98665.22;;;8.51;77.39
11936;BME280;6027;48.576;9.180;2023-02-13T15:16:58;98655.03;;;8.47;77.66
11936;BME280;6027;48.576;9.180;2023-02-13T15:19:26;98658.53;;;8.47;77.32
11936;BME280;6027;48.576;9.180;2023-02-13T15:21:58;98660.38;;;8.36;78.03
11936;BME280;6027;48.576;9.180;2023-02-13T15:24:25;98659.53;;;8.35;77.45
11936;BME280;6027;48.576;9.180;2023-02-13T15:26:58;98660.81;;;8.29;76.85
11936;BME280;6027;48.576;9.180;2023-02-13T15:29:24;98659.03;;;8.30;76.82
11936;BME280;6027;48.576;9.180;2023-02-13T15:31:50;98656.66;;;8.16;77.79
11936;BME280;6027;48.576;9.180;2023-02-13T15:36:45;98660.25;;;8.26;77.70
11936;BME280;6027;48.576;9.180;2023-02-13T15:39:16;98662.06;;;8.14;77.87
11936;BME280;6027;48.576;9.180;2023-02-13T15:41:46;98654.41;;;8.11;77.61
11936;BME280;6027;48.576;9.180;2023-02-13T15:44:26;98658.59;;;8.14;78.22
11936;BME280;6027;48.576;9.180;2023-02-13T15:47:02;98651.69;;;8.02;78.95
11936;BME280;6027;48.576;9.180;2023-02-13T15:49:35;98652.78;;;7.88;78.96
11936;BME280;6027;48.576;9.180;2023-02-13T15:52:11;98658.75;;;7.90;79.88
11936;BME280;6027;48.576;9.180;2023-02-13T15:54:47;98662.50;;;7.87;79.85
11936;BME280;6027;48.576;9.180;2023-02-13T15:57:12;98662.13;;;7.81;80.01
11936;BME280;6027;48.576;9.180;2023-02-13T15:59:39;98658.78;;;7.79;80.24
11936;BME280;6027;48.576;9.180;2023-02-13T16:02:11;98654.44;;;7.78;80.68
11936;BME280;6027;48.576;9.180;2023-02-13T16:04:39;98653.97;;;7.84;80.33
11936;BME280;6027;48.576;9.180;2023-02-13T16:07:11;98657.22;;;7.65;82.17
11936;BME280;6027;48.576;9.180;2023-02-13T16:09:37;98650.50;;;7.61;81.95
11936;BME280;6027;48.576;9.180;2023-02-13T16:12:18;98649.78;;;7.59;82.64
11936;BME280;6027;48.576;9.180;2023-02-13T16:14:51;98653.63;;;7.55;82.53
11936;BME280;6027;48.576;9.180;2023-02-13T16:20:01;98653.97;;;7.39;83.42
11936;BME280;6027;48.576;9.180;2023-02-13T16:22:42;98655.53;;;7.31;84.08
11936;BME280;6027;48.576;9.180;2023-02-13T16:27:58;98660.16;;;7.05;85.05
11936;BME280;6027;48.576;9.180;2023-02-13T16:30:31;98653.44;;;7.01;85.14
11936;BME280;6027;48.576;9.180;2023-02-13T16:41:05;98666.47;;;6.91;85.35